createdAt,value
2023-03-23T15:57:53.824Z,10.93
2023-03-23T16:00:56.459Z,10.91
2023-03-23T16:04:05.963Z,10.89
2023-03-23T16:07:08.759Z,10.88
2023-03-23T16:10:23.053Z,10.89
2023-03-23T16:13:24.688Z,10.91
2023-03-23T16:16:38.836Z,10.94
2023-03-23T16:19:40.439Z,10.97
2023-03-23T16:22:42.358Z,11.00
2023-03-23T16:25:44.421Z,11.00
2023-03-23T16:28:46.324Z,11.02
2023-03-23T16:31:47.888Z,11.01
2023-03-23T16:34:49.406Z,11.00
2023-03-23T16:38:07.235Z,11.00
2023-03-23T16:41:10.240Z,11.00
2023-03-23T16:44:12.615Z,11.02
2023-03-23T16:47:14.202Z,11.02
2023-03-23T16:50:18.521Z,11.01
2023-03-23T16:53:20.971Z,10.98
2023-03-23T16:56:22.574Z,10.94
2023-03-23T16:59:24.111Z,10.93
2023-03-23T17:02:25.875Z,10.91
2023-03-23T17:05:29.235Z,10.88
2023-03-23T17:08:30.924Z,10.86
2023-03-23T17:11:32.573Z,10.83
2023-03-23T17:14:34.298Z,10.80
2023-03-23T17:17:36.164Z,10.78
2023-03-23T17:20:38.131Z,10.74
2023-03-23T17:23:39.674Z,10.69
2023-03-23T17:26:41.808Z,10.65
2023-03-23T17:29:44.121Z,10.60
2023-03-23T17:32:47.625Z,10.54
2023-03-23T17:35:52.038Z,10.50
2023-03-23T17:38:53.819Z,10.45
2023-03-23T17:41:55.603Z,10.41
2023-03-23T17:44:57.143Z,10.36
2023-03-23T17:47:58.797Z,10.29
2023-03-23T17:51:02.352Z,10.22
2023-03-23T17:54:04.054Z,10.19
2023-03-23T17:57:05.990Z,10.15
2023-03-23T18:00:09.125Z,10.10
2023-03-23T18:03:10.855Z,10.02
2023-03-23T18:06:12.692Z,9.98
2023-03-23T18:09:15.542Z,9.95
2023-03-23T18:12:17.799Z,9.90
2023-03-23T18:15:19.494Z,9.88
2023-03-23T18:18:22.249Z,9.84
2023-03-23T18:21:23.853Z,9.82
2023-03-23T18:24:25.562Z,9.80
2023-03-23T18:27:27.193Z,9.79
2023-03-23T18:30:28.801Z,9.77
2023-03-23T18:33:30.416Z,9.75
2023-03-23T18:36:32.106Z,9.74
2023-03-23T18:39:38.029Z,9.74
2023-03-23T18:42:41.232Z,9.70
2023-03-23T18:45:48.845Z,9.66
2023-03-23T18:48:50.415Z,9.65
2023-03-23T18:51:51.957Z,9.63
2023-03-23T18:54:53.791Z,9.63
2023-03-23T18:57:55.647Z,9.61
2023-03-23T19:00:57.615Z,9.57
2023-03-23T19:03:59.283Z,9.55
2023-03-23T19:07:04.493Z,9.56
2023-03-23T19:10:06.423Z,9.54
2023-03-23T19:13:09.381Z,9.50
2023-03-23T19:16:11.061Z,9.50
2023-03-23T19:19:12.653Z,9.48
2023-03-23T19:22:14.252Z,9.47
2023-03-23T19:25:16.016Z,9.48
2023-03-23T19:31:25.136Z,9.48
2023-03-23T19:34:28.159Z,9.46
2023-03-23T19:37:34.609Z,9.46
2023-03-23T19:40:42.063Z,9.43
2023-03-23T19:43:44.194Z,9.41
2023-03-23T19:46:46.171Z,9.38
2023-03-23T19:49:47.826Z,9.38
2023-03-23T19:52:49.382Z,9.41
2023-03-23T19:55:51.672Z,9.41
2023-03-23T19:58:53.624Z,9.41
2023-03-23T20:01:55.188Z,9.39
2023-03-23T20:04:57.032Z,9.39
2023-03-23T20:07:58.593Z,9.38
2023-03-23T20:11:04.858Z,9.37
2023-03-23T20:14:07.393Z,9.36
2023-03-23T20:17:09.913Z,9.34
2023-03-23T20:20:11.897Z,9.33
2023-03-23T20:23:13.539Z,9.32
2023-03-23T20:26:25.688Z,9.32
2023-03-23T20:29:31.342Z,9.30
2023-03-23T20:32:33.265Z,9.28
2023-03-23T20:35:34.944Z,9.27
2023-03-23T20:38:38.538Z,9.26
2023-03-23T20:41:40.565Z,9.26
2023-03-23T20:44:42.955Z,9.28
2023-03-23T20:47:44.588Z,9.29
2023-03-23T20:50:47.250Z,9.32
2023-03-23T20:53:48.779Z,9.33
2023-03-23T20:56:51.715Z,9.31
2023-03-23T20:59:53.850Z,9.33
2023-03-23T21:02:55.905Z,9.32
2023-03-23T21:05:58.426Z,9.31
2023-03-23T21:09:00.017Z,9.32
2023-03-23T21:12:06.184Z,9.33
2023-03-23T21:15:08.333Z,9.34
2023-03-23T21:18:11.208Z,9.34
2023-03-23T21:21:15.089Z,9.36
2023-03-23T21:24:16.931Z,9.37
2023-03-23T21:27:18.615Z,9.37
2023-03-23T21:30:21.703Z,9.36
2023-03-23T21:33:24.221Z,9.38
2023-03-23T21:36:27.291Z,9.39
2023-03-23T21:39:29.044Z,9.39
2023-03-23T21:42:30.936Z,9.36
2023-03-23T21:45:33.732Z,9.34
2023-03-23T21:48:38.749Z,9.33
2023-03-23T21:51:41.722Z,9.29
2023-03-23T21:54:43.230Z,9.28
2023-03-23T21:57:44.969Z,9.27
2023-03-23T22:00:49.823Z,9.26
2023-03-23T22:03:51.987Z,9.26
2023-03-23T22:06:53.570Z,9.24
2023-03-23T22:09:55.138Z,9.24
2023-03-23T22:12:56.879Z,9.23
2023-03-23T22:16:01.200Z,9.22
2023-03-23T22:19:03.655Z,9.22
2023-03-23T22:22:05.979Z,9.22
2023-03-23T22:25:08.690Z,9.21
2023-03-23T22:28:10.576Z,9.21
2023-03-23T22:31:18.470Z,9.19
2023-03-23T22:34:20.502Z,9.19
2023-03-23T22:37:22.115Z,9.18
2023-03-23T22:40:24.041Z,9.19
2023-03-23T22:43:27.016Z,9.20
2023-03-23T22:46:28.814Z,9.21
2023-03-23T22:49:30.401Z,9.22
2023-03-23T22:52:32.748Z,9.21
2023-03-23T22:55:34.318Z,9.21
2023-03-23T22:58:36.279Z,9.21
2023-03-23T23:01:38.076Z,9.23
2023-03-23T23:04:39.675Z,9.24
2023-03-23T23:07:41.569Z,9.23
2023-03-23T23:10:46.346Z,9.24
2023-03-23T23:13:48.798Z,9.24
2023-03-23T23:16:51.835Z,9.41
2023-03-23T23:19:53.512Z,9.39
2023-03-23T23:22:55.074Z,9.39
2023-03-23T23:25:57.265Z,9.37
2023-03-23T23:28:58.885Z,9.33
2023-03-23T23:32:02.203Z,9.31
2023-03-23T23:35:05.041Z,9.30
2023-03-23T23:38:09.636Z,9.27
2023-03-23T23:41:11.296Z,9.25
2023-03-23T23:44:12.874Z,9.23
2023-03-23T23:47:14.635Z,9.19
2023-03-23T23:50:16.968Z,9.18
2023-03-23T23:53:22.777Z,9.15
2023-03-23T23:56:25.157Z,9.14
2023-03-23T23:59:27.316Z,9.11
